Main page
METAR-TAF:

METAR-TAF

Airports :

Istanbul Sabiha Gökçen, Turkey

Sabiha Gökçen International Airport

latitude: 40-53-55N, longitude: 029-18-33E, elevation: 95 m

Current weather observation

The report was made 47 minutes ago, at 20:50 UTC
Wind 6 kt from the North/Northeast
Temperature 0°C
Humidity 80%
Pressure 1031 hPa
Visibility 10 km or more
no clouds below 1500 m and no cumulonimbus

METAR: LTFJ 212050Z 03006KT CAVOK M00/M03 Q1031 NOSIG RMK RWY24 36004KT

Time: 23:37 (21:37 UTC)

Forecast

The report was made 4 hours and 57 minutes ago, at 16:40 UTC
Forecast valid from 21 at 18 UTC to 22 at 18 UTC
Wind 9 kt from the North/Northeast
Visibility 10 km or more
no clouds below 1500 m and no cumulonimbus
Probability 30% :
Temporary
from 22 at 02 UTC to 22 at 06 UTC
Visibility: 4000 m
mist
Temporary
from 22 at 10 UTC to 22 at 14 UTC
Scattered clouds at a height of 3500 ft

TAF: LTFJ 211640Z 2118/2218 03009KT CAVOK PROB30 TEMPO 2202/2206 4000 BR TEMPO 2210/2214 SCT035

Weather observations and forecasts of more than 4000 airports (METAR and TAF reports).

The available stations are represented by yellow and red dots on the map.

Hover mouse over dot to see the name of the station.

Then click to see weather observations and forecasts.

To change the map : click on the green buttons with a black cross to zoom in, on the green button with a dash to zoom out, or on the green arrows for adjacent maps.


METAR-TAF: